ADDS TAF Data INFO
IDs: Format: Raw Decoded Include METARs

Data at: 1048 UTC 22 Apr 2018

KMGW 220953Z AUTO 36004KT 10SM CLR 07/M04 A3029 RMK AO2 SLP261 T00721039

KMGW 220520Z 2206/2306 03003KT P6SM BKN150
  FM221800 06005KT P6SM SCT250